sensor_id;sensor_type;location;lat;lon;timestamp;P1;durP1;ratioP1;P2;durP2;ratioP2
27925;SDS011;15267;47.838;12.128;2023-02-08T00:01:58;38.60;;;22.90;;
27925;SDS011;15267;47.838;12.128;2023-02-08T00:04:24;37.85;;;23.50;;
27925;SDS011;15267;47.838;12.128;2023-02-08T00:06:50;40.38;;;24.17;;
27925;SDS011;15267;47.838;12.128;2023-02-08T00:09:16;44.67;;;25.35;;
27925;SDS011;15267;47.838;12.128;2023-02-08T00:11:42;43.65;;;25.00;;
27925;SDS011;15267;47.838;12.128;2023-02-08T00:14:08;37.70;;;23.40;;
27925;SDS011;15267;47.838;12.128;2023-02-08T00:16:34;40.97;;;23.48;;
27925;SDS011;15267;47.838;12.128;2023-02-08T00:19:00;37.75;;;22.67;;
27925;SDS011;15267;47.838;12.128;2023-02-08T00:21:26;37.85;;;23.38;;
27925;SDS011;15267;47.838;12.128;2023-02-08T00:23:52;37.50;;;22.55;;
27925;SDS011;15267;47.838;12.128;2023-02-08T00:26:18;41.47;;;23.00;;
27925;SDS011;15267;47.838;12.128;2023-02-08T00:28:44;44.65;;;23.77;;
27925;SDS011;15267;47.838;12.128;2023-02-08T00:31:10;41.38;;;23.50;;
27925;SDS011;15267;47.838;12.128;2023-02-08T00:33:36;44.20;;;23.95;;
27925;SDS011;15267;47.838;12.128;2023-02-08T00:36:03;40.22;;;23.80;;
27925;SDS011;15267;47.838;12.128;2023-02-08T00:38:29;42.72;;;23.83;;
27925;SDS011;15267;47.838;12.128;2023-02-08T00:40:55;37.80;;;23.08;;
27925;SDS011;15267;47.838;12.128;2023-02-08T00:43:21;39.40;;;24.27;;
27925;SDS011;15267;47.838;12.128;2023-02-08T00:45:52;41.58;;;23.33;;
27925;SDS011;15267;47.838;12.128;2023-02-08T00:48:18;39.92;;;23.40;;
27925;SDS011;15267;47.838;12.128;2023-02-08T00:50:43;41.92;;;24.33;;
27925;SDS011;15267;47.838;12.128;2023-02-08T00:53:09;41.72;;;23.23;;
27925;SDS011;15267;47.838;12.128;2023-02-08T00:55:35;42.75;;;25.15;;
27925;SDS011;15267;47.838;12.128;2023-02-08T00:58:01;41.63;;;23.83;;
27925;SDS011;15267;47.838;12.128;2023-02-08T01:00:27;41.35;;;22.60;;
27925;SDS011;15267;47.838;12.128;2023-02-08T01:02:53;38.33;;;23.55;;
27925;SDS011;15267;47.838;12.128;2023-02-08T01:05:19;44.90;;;23.73;;
27925;SDS011;15267;47.838;12.128;2023-02-08T01:07:45;37.95;;;22.92;;
27925;SDS011;15267;47.838;12.128;2023-02-08T01:10:11;39.80;;;23.15;;
27925;SDS011;15267;47.838;12.128;2023-02-08T01:12:37;36.30;;;22.42;;
27925;SDS011;15267;47.838;12.128;2023-02-08T01:15:03;38.58;;;22.23;;
27925;SDS011;15267;47.838;12.128;2023-02-08T01:17:30;42.33;;;23.33;;
27925;SDS011;15267;47.838;12.128;2023-02-08T01:19:56;39.75;;;23.23;;
27925;SDS011;15267;47.838;12.128;2023-02-08T01:22:21;41.10;;;23.85;;
27925;SDS011;15267;47.838;12.128;2023-02-08T01:24:47;40.63;;;22.77;;
27925;SDS011;15267;47.838;12.128;2023-02-08T01:27:13;38.25;;;22.95;;
27925;SDS011;15267;47.838;12.128;2023-02-08T01:29:39;38.92;;;23.10;;
27925;SDS011;15267;47.838;12.128;2023-02-08T01:32:05;40.65;;;23.42;;
27925;SDS011;15267;47.838;12.128;2023-02-08T01:34:31;38.92;;;22.70;;
27925;SDS011;15267;47.838;12.128;2023-02-08T01:36:57;39.70;;;24.67;;
27925;SDS011;15267;47.838;12.128;2023-02-08T01:39:23;39.67;;;23.83;;
27925;SDS011;15267;47.838;12.128;2023-02-08T01:41:49;40.53;;;22.67;;
27925;SDS011;15267;47.838;12.128;2023-02-08T01:46:45;40.30;;;24.10;;
27925;SDS011;15267;47.838;12.128;2023-02-08T01:49:20;40.88;;;23.48;;
27925;SDS011;15267;47.838;12.128;2023-02-08T01:51:49;41.55;;;23.23;;
27925;SDS011;15267;47.838;12.128;2023-02-08T01:54:17;38.17;;;23.10;;
27925;SDS011;15267;47.838;12.128;2023-02-08T01:56:44;40.70;;;23.30;;
27925;SDS011;15267;47.838;12.128;2023-02-08T01:59:17;41.13;;;23.52;;
27925;SDS011;15267;47.838;12.128;2023-02-08T02:04:11;40.28;;;23.48;;
27925;SDS011;15267;47.838;12.128;2023-02-08T02:06:41;41.17;;;22.88;;
27925;SDS011;15267;47.838;12.128;2023-02-08T02:09:26;43.50;;;23.77;;
27925;SDS011;15267;47.838;12.128;2023-02-08T02:11:53;37.92;;;22.52;;
27925;SDS011;15267;47.838;12.128;2023-02-08T02:14:19;40.65;;;23.50;;
27925;SDS011;15267;47.838;12.128;2023-02-08T02:16:46;43.47;;;25.08;;
27925;SDS011;15267;47.838;12.128;2023-02-08T02:32:50;39.38;;;22.80;;
27925;SDS011;15267;47.838;12.128;2023-02-08T02:38:28;38.80;;;22.05;;
27925;SDS011;15267;47.838;12.128;2023-02-08T02:48:45;38.67;;;22.75;;
27925;SDS011;15267;47.838;12.128;2023-02-08T02:51:14;38.80;;;22.10;;
27925;SDS011;15267;47.838;12.128;2023-02-08T02:53:49;39.47;;;22.55;;
27925;SDS011;15267;47.838;12.128;2023-02-08T02:56:18;41.60;;;22.48;;
27925;SDS011;15267;47.838;12.128;2023-02-08T02:58:46;38.33;;;23.42;;
27925;SDS011;15267;47.838;12.128;2023-02-08T03:01:13;41.28;;;23.33;;
27925;SDS011;15267;47.838;12.128;2023-02-08T03:03:39;41.53;;;23.45;;
27925;SDS011;15267;47.838;12.128;2023-02-08T03:06:06;46.08;;;25.02;;
27925;SDS011;15267;47.838;12.128;2023-02-08T03:13:43;44.75;;;24.35;;
27925;SDS011;15267;47.838;12.128;2023-02-08T03:16:15;43.08;;;25.10;;
27925;SDS011;15267;47.838;12.128;2023-02-08T03:23:58;43.45;;;22.75;;
27925;SDS011;15267;47.838;12.128;2023-02-08T03:29:15;36.97;;;22.58;;
27925;SDS011;15267;47.838;12.128;2023-02-08T03:31:49;41.72;;;23.05;;
27925;SDS011;15267;47.838;12.128;2023-02-08T03:34:20;40.83;;;22.75;;
27925;SDS011;15267;47.838;12.128;2023-02-08T03:39:22;43.88;;;23.17;;
27925;SDS011;15267;47.838;12.128;2023-02-08T03:41:50;37.05;;;22.13;;
27925;SDS011;15267;47.838;12.128;2023-02-08T03:44:28;38.00;;;22.15;;
27925;SDS011;15267;47.838;12.128;2023-02-08T03:46:57;39.53;;;23.20;;
27925;SDS011;15267;47.838;12.128;2023-02-08T03:49:28;37.30;;;22.20;;
27925;SDS011;15267;47.838;12.128;2023-02-08T03:51:56;36.38;;;22.33;;
27925;SDS011;15267;47.838;12.128;2023-02-08T03:54:24;33.10;;;21.25;;
27925;SDS011;15267;47.838;12.128;2023-02-08T03:56:56;34.33;;;21.00;;
27925;SDS011;15267;47.838;12.128;2023-02-08T03:59:25;40.28;;;21.73;;
27925;SDS011;15267;47.838;12.128;2023-02-08T04:01:54;37.05;;;22.08;;
27925;SDS011;15267;47.838;12.128;2023-02-08T04:04:22;37.90;;;21.80;;
27925;SDS011;15267;47.838;12.128;2023-02-08T04:06:48;37.08;;;21.80;;
27925;SDS011;15267;47.838;12.128;2023-02-08T04:09:14;37.90;;;22.25;;
27925;SDS011;15267;47.838;12.128;2023-02-08T04:11:40;35.72;;;21.02;;
27925;SDS011;15267;47.838;12.128;2023-02-08T04:14:06;36.13;;;21.08;;
27925;SDS011;15267;47.838;12.128;2023-02-08T04:16:32;36.58;;;21.77;;
27925;SDS011;15267;47.838;12.128;2023-02-08T04:18:58;38.25;;;22.48;;
27925;SDS011;15267;47.838;12.128;2023-02-08T04:21:24;40.83;;;22.05;;
27925;SDS011;15267;47.838;12.128;2023-02-08T04:23:51;36.95;;;21.52;;
27925;SDS011;15267;47.838;12.128;2023-02-08T04:26:16;42.80;;;22.63;;
27925;SDS011;15267;47.838;12.128;2023-02-08T04:28:42;40.22;;;22.55;;
27925;SDS011;15267;47.838;12.128;2023-02-08T04:31:08;38.20;;;21.63;;
27925;SDS011;15267;47.838;12.128;2023-02-08T04:33:34;40.95;;;22.48;;
27925;SDS011;15267;47.838;12.128;2023-02-08T04:36:00;36.65;;;21.13;;
27925;SDS011;15267;47.838;12.128;2023-02-08T04:38:26;37.53;;;21.00;;
27925;SDS011;15267;47.838;12.128;2023-02-08T04:40:52;38.85;;;21.15;;
27925;SDS011;15267;47.838;12.128;2023-02-08T04:43:18;36.88;;;20.77;;
27925;SDS011;15267;47.838;12.128;2023-02-08T04:45:44;36.40;;;21.15;;
27925;SDS011;15267;47.838;12.128;2023-02-08T04:48:10;36.38;;;21.40;;
27925;SDS011;15267;47.838;12.128;2023-02-08T04:50:36;37.65;;;21.38;;
27925;SDS011;15267;47.838;12.128;2023-02-08T04:53:02;34.65;;;19.85;;
27925;SDS011;15267;47.838;12.128;2023-02-08T04:55:28;33.88;;;20.50;;
27925;SDS011;15267;47.838;12.128;2023-02-08T04:57:54;33.28;;;20.58;;
27925;SDS011;15267;47.838;12.128;2023-02-08T05:00:20;36.13;;;20.45;;
27925;SDS011;15267;47.838;12.128;2023-02-08T05:02:46;35.63;;;19.95;;
27925;SDS011;15267;47.838;12.128;2023-02-08T05:05:12;34.33;;;20.45;;
27925;SDS011;15267;47.838;12.128;2023-02-08T05:07:38;36.42;;;20.20;;
27925;SDS011;15267;47.838;12.128;2023-02-08T05:10:04;32.38;;;19.70;;
27925;SDS011;15267;47.838;12.128;2023-02-08T05:12:30;34.70;;;20.20;;
27925;SDS011;15267;47.838;12.128;2023-02-08T05:14:56;35.33;;;19.55;;
27925;SDS011;15267;47.838;12.128;2023-02-08T05:17:22;33.55;;;20.17;;
27925;SDS011;15267;47.838;12.128;2023-02-08T05:19:48;36.28;;;20.35;;
27925;SDS011;15267;47.838;12.128;2023-02-08T05:22:14;35.60;;;19.30;;
27925;SDS011;15267;47.838;12.128;2023-02-08T05:24:40;35.55;;;19.98;;
27925;SDS011;15267;47.838;12.128;2023-02-08T05:27:06;32.03;;;19.52;;
27925;SDS011;15267;47.838;12.128;2023-02-08T05:29:32;36.95;;;19.95;;
27925;SDS011;15267;47.838;12.128;2023-02-08T05:31:58;31.30;;;19.98;;
27925;SDS011;15267;47.838;12.128;2023-02-08T05:34:24;30.17;;;18.85;;
27925;SDS011;15267;47.838;12.128;2023-02-08T05:36:50;32.42;;;19.08;;
27925;SDS011;15267;47.838;12.128;2023-02-08T05:39:16;31.27;;;18.27;;
27925;SDS011;15267;47.838;12.128;2023-02-08T05:41:42;31.98;;;19.65;;
27925;SDS011;15267;47.838;12.128;2023-02-08T05:44:08;32.50;;;19.33;;
27925;SDS011;15267;47.838;12.128;2023-02-08T05:46:34;31.20;;;19.05;;
27925;SDS011;15267;47.838;12.128;2023-02-08T05:49:00;34.75;;;20.25;;
27925;SDS011;15267;47.838;12.128;2023-02-08T05:51:26;34.80;;;21.38;;
27925;SDS011;15267;47.838;12.128;2023-02-08T05:53:51;35.95;;;20.52;;
27925;SDS011;15267;47.838;12.128;2023-02-08T05:56:17;37.42;;;20.50;;
27925;SDS011;15267;47.838;12.128;2023-02-08T05:58:43;36.75;;;21.17;;
27925;SDS011;15267;47.838;12.128;2023-02-08T06:01:10;33.80;;;20.50;;
27925;SDS011;15267;47.838;12.128;2023-02-08T06:03:36;36.72;;;20.42;;
27925;SDS011;15267;47.838;12.128;2023-02-08T06:06:02;38.40;;;21.27;;
27925;SDS011;15267;47.838;12.128;2023-02-08T06:08:28;39.00;;;20.65;;
27925;SDS011;15267;47.838;12.128;2023-02-08T06:10:54;38.05;;;22.08;;
27925;SDS011;15267;47.838;12.128;2023-02-08T06:13:20;38.13;;;20.92;;
27925;SDS011;15267;47.838;12.128;2023-02-08T06:15:46;34.67;;;20.30;;
27925;SDS011;15267;47.838;12.128;2023-02-08T06:18:12;35.78;;;21.52;;
27925;SDS011;15267;47.838;12.128;2023-02-08T06:20:38;35.33;;;20.13;;
27925;SDS011;15267;47.838;12.128;2023-02-08T06:23:05;33.50;;;20.25;;
27925;SDS011;15267;47.838;12.128;2023-02-08T06:25:31;35.92;;;20.60;;
27925;SDS011;15267;47.838;12.128;2023-02-08T06:27:57;34.83;;;21.13;;
27925;SDS011;15267;47.838;12.128;2023-02-08T06:30:23;35.13;;;21.33;;
27925;SDS011;15267;47.838;12.128;2023-02-08T06:32:49;35.25;;;20.80;;
27925;SDS011;15267;47.838;12.128;2023-02-08T06:35:15;37.30;;;20.70;;
27925;SDS011;15267;47.838;12.128;2023-02-08T06:37:40;37.00;;;21.60;;
27925;SDS011;15267;47.838;12.128;2023-02-08T06:40:07;41.38;;;21.65;;
27925;SDS011;15267;47.838;12.128;2023-02-08T06:42:33;43.45;;;21.77;;
27925;SDS011;15267;47.838;12.128;2023-02-08T06:44:59;38.65;;;21.83;;
27925;SDS011;15267;47.838;12.128;2023-02-08T06:47:25;40.45;;;21.45;;
27925;SDS011;15267;47.838;12.128;2023-02-08T06:49:51;37.67;;;20.83;;
27925;SDS011;15267;47.838;12.128;2023-02-08T06:52:18;33.03;;;19.88;;
27925;SDS011;15267;47.838;12.128;2023-02-08T06:54:44;34.25;;;19.88;;
27925;SDS011;15267;47.838;12.128;2023-02-08T06:57:10;36.78;;;21.52;;
27925;SDS011;15267;47.838;12.128;2023-02-08T06:59:37;42.08;;;22.77;;
27925;SDS011;15267;47.838;12.128;2023-02-08T07:02:03;44.58;;;23.83;;
27925;SDS011;15267;47.838;12.128;2023-02-08T07:04:29;42.40;;;24.10;;
27925;SDS011;15267;47.838;12.128;2023-02-08T07:06:55;119.07;;;48.97;;
27925;SDS011;15267;47.838;12.128;2023-02-08T07:09:21;195.52;;;71.63;;
27925;SDS011;15267;47.838;12.128;2023-02-08T07:11:47;231.45;;;84.60;;
27925;SDS011;15267;47.838;12.128;2023-02-08T07:14:13;140.85;;;57.38;;
27925;SDS011;15267;47.838;12.128;2023-02-08T07:16:40;66.97;;;33.00;;
27925;SDS011;15267;47.838;12.128;2023-02-08T07:19:06;54.72;;;28.67;;
27925;SDS011;15267;47.838;12.128;2023-02-08T07:21:32;47.92;;;25.10;;
27925;SDS011;15267;47.838;12.128;2023-02-08T07:23:58;48.53;;;25.17;;
27925;SDS011;15267;47.838;12.128;2023-02-08T07:26:24;50.05;;;25.40;;
27925;SDS011;15267;47.838;12.128;2023-02-08T07:28:50;47.83;;;26.50;;
27925;SDS011;15267;47.838;12.128;2023-02-08T07:31:16;47.13;;;25.40;;
27925;SDS011;15267;47.838;12.128;2023-02-08T07:33:42;50.30;;;26.00;;
27925;SDS011;15267;47.838;12.128;2023-02-08T07:36:09;49.30;;;27.65;;
27925;SDS011;15267;47.838;12.128;2023-02-08T07:38:35;49.15;;;27.08;;
27925;SDS011;15267;47.838;12.128;2023-02-08T07:41:02;49.15;;;26.70;;
27925;SDS011;15267;47.838;12.128;2023-02-08T07:43:29;44.15;;;26.75;;
27925;SDS011;15267;47.838;12.128;2023-02-08T07:45:55;49.45;;;26.10;;
27925;SDS011;15267;47.838;12.128;2023-02-08T07:48:21;43.42;;;26.63;;
27925;SDS011;15267;47.838;12.128;2023-02-08T07:50:47;47.55;;;26.83;;
27925;SDS011;15267;47.838;12.128;2023-02-08T07:53:13;53.55;;;29.38;;
27925;SDS011;15267;47.838;12.128;2023-02-08T07:55:39;52.85;;;29.65;;
27925;SDS011;15267;47.838;12.128;2023-02-08T07:58:05;47.28;;;27.02;;
27925;SDS011;15267;47.838;12.128;2023-02-08T08:00:31;47.63;;;26.65;;
27925;SDS011;15267;47.838;12.128;2023-02-08T08:02:57;51.33;;;30.52;;
27925;SDS011;15267;47.838;12.128;2023-02-08T08:05:23;50.78;;;28.48;;
27925;SDS011;15267;47.838;12.128;2023-02-08T08:07:49;48.38;;;26.23;;
27925;SDS011;15267;47.838;12.128;2023-02-08T08:10:15;45.83;;;24.15;;
27925;SDS011;15267;47.838;12.128;2023-02-08T08:12:41;44.97;;;23.77;;
27925;SDS011;15267;47.838;12.128;2023-02-08T08:15:07;40.40;;;22.67;;
27925;SDS011;15267;47.838;12.128;2023-02-08T08:17:33;42.17;;;22.40;;
27925;SDS011;15267;47.838;12.128;2023-02-08T08:19:59;43.72;;;22.67;;
27925;SDS011;15267;47.838;12.128;2023-02-08T08:22:25;40.85;;;21.30;;
27925;SDS011;15267;47.838;12.128;2023-02-08T08:24:51;37.00;;;20.70;;
27925;SDS011;15267;47.838;12.128;2023-02-08T08:27:17;37.20;;;20.40;;
27925;SDS011;15267;47.838;12.128;2023-02-08T08:29:43;34.20;;;19.90;;
27925;SDS011;15267;47.838;12.128;2023-02-08T08:32:09;43.15;;;22.88;;
27925;SDS011;15267;47.838;12.128;2023-02-08T08:34:35;38.08;;;21.42;;
27925;SDS011;15267;47.838;12.128;2023-02-08T08:37:01;35.05;;;21.27;;
27925;SDS011;15267;47.838;12.128;2023-02-08T08:39:27;33.83;;;20.50;;
27925;SDS011;15267;47.838;12.128;2023-02-08T08:41:57;38.47;;;21.20;;
27925;SDS011;15267;47.838;12.128;2023-02-08T08:44:23;36.80;;;19.88;;
27925;SDS011;15267;47.838;12.128;2023-02-08T08:46:49;40.00;;;20.02;;
27925;SDS011;15267;47.838;12.128;2023-02-08T08:49:15;30.70;;;19.75;;
27925;SDS011;15267;47.838;12.128;2023-02-08T08:51:41;35.90;;;19.77;;
27925;SDS011;15267;47.838;12.128;2023-02-08T08:54:07;28.88;;;17.05;;
27925;SDS011;15267;47.838;12.128;2023-02-08T08:56:33;32.30;;;19.85;;
27925;SDS011;15267;47.838;12.128;2023-02-08T08:58:58;40.63;;;24.50;;
27925;SDS011;15267;47.838;12.128;2023-02-08T09:01:25;28.67;;;18.63;;
27925;SDS011;15267;47.838;12.128;2023-02-08T09:03:51;30.33;;;16.95;;
27925;SDS011;15267;47.838;12.128;2023-02-08T09:06:17;23.20;;;15.18;;
27925;SDS011;15267;47.838;12.128;2023-02-08T09:08:43;30.38;;;18.23;;
27925;SDS011;15267;47.838;12.128;2023-02-08T09:11:10;39.28;;;23.25;;
27925;SDS011;15267;47.838;12.128;2023-02-08T09:13:37;41.15;;;22.77;;
27925;SDS011;15267;47.838;12.128;2023-02-08T09:16:07;35.60;;;21.10;;
27925;SDS011;15267;47.838;12.128;2023-02-08T09:18:34;43.60;;;22.48;;
27925;SDS011;15267;47.838;12.128;2023-02-08T09:21:07;36.03;;;21.45;;
27925;SDS011;15267;47.838;12.128;2023-02-08T09:26:01;34.70;;;22.02;;
27925;SDS011;15267;47.838;12.128;2023-02-08T09:28:27;23.10;;;14.88;;
27925;SDS011;15267;47.838;12.128;2023-02-08T09:30:53;24.88;;;15.15;;
27925;SDS011;15267;47.838;12.128;2023-02-08T09:33:19;25.05;;;15.82;;
27925;SDS011;15267;47.838;12.128;2023-02-08T09:35:45;22.85;;;14.70;;
27925;SDS011;15267;47.838;12.128;2023-02-08T09:38:11;23.10;;;15.20;;
27925;SDS011;15267;47.838;12.128;2023-02-08T09:40:41;24.45;;;15.48;;
27925;SDS011;15267;47.838;12.128;2023-02-08T09:43:09;22.67;;;14.00;;
27925;SDS011;15267;47.838;12.128;2023-02-08T09:45:46;24.42;;;14.95;;
27925;SDS011;15267;47.838;12.128;2023-02-08T09:51:09;26.08;;;15.95;;
27925;SDS011;15267;47.838;12.128;2023-02-08T09:53:43;24.42;;;16.00;;
27925;SDS011;15267;47.838;12.128;2023-02-08T09:56:14;24.58;;;14.85;;
27925;SDS011;15267;47.838;12.128;2023-02-08T09:58:42;26.45;;;15.73;;
27925;SDS011;15267;47.838;12.128;2023-02-08T10:01:20;28.20;;;15.25;;
27925;SDS011;15267;47.838;12.128;2023-02-08T10:03:46;25.48;;;14.05;;
27925;SDS011;15267;47.838;12.128;2023-02-08T10:06:15;22.80;;;14.50;;
27925;SDS011;15267;47.838;12.128;2023-02-08T10:08:41;23.55;;;15.07;;
27925;SDS011;15267;47.838;12.128;2023-02-08T10:11:30;21.83;;;14.48;;
27925;SDS011;15267;47.838;12.128;2023-02-08T10:29:36;23.52;;;14.52;;
27925;SDS011;15267;47.838;12.128;2023-02-08T10:34:35;24.20;;;14.27;;
27925;SDS011;15267;47.838;12.128;2023-02-08T10:37:19;22.33;;;14.02;;
27925;SDS011;15267;47.838;12.128;2023-02-08T10:39:46;24.48;;;14.95;;
27925;SDS011;15267;47.838;12.128;2023-02-08T10:42:14;22.92;;;14.65;;
27925;SDS011;15267;47.838;12.128;2023-02-08T10:47:19;33.13;;;18.73;;
27925;SDS011;15267;47.838;12.128;2023-02-08T10:49:49;29.75;;;18.50;;
27925;SDS011;15267;47.838;12.128;2023-02-08T10:52:18;27.90;;;17.33;;
27925;SDS011;15267;47.838;12.128;2023-02-08T10:54:44;41.22;;;23.33;;
27925;SDS011;15267;47.838;12.128;2023-02-08T10:57:13;25.50;;;16.88;;
27925;SDS011;15267;47.838;12.128;2023-02-08T10:59:45;23.85;;;14.95;;
27925;SDS011;15267;47.838;12.128;2023-02-08T11:02:30;22.48;;;14.90;;
27925;SDS011;15267;47.838;12.128;2023-02-08T11:04:57;24.48;;;15.38;;
27925;SDS011;15267;47.838;12.128;2023-02-08T11:07:24;24.25;;;15.27;;
27925;SDS011;15267;47.838;12.128;2023-02-08T11:09:50;31.05;;;16.63;;
27925;SDS011;15267;47.838;12.128;2023-02-08T11:12:20;26.08;;;16.27;;
27925;SDS011;15267;47.838;12.128;2023-02-08T11:14:48;25.73;;;16.50;;
27925;SDS011;15267;47.838;12.128;2023-02-08T11:17:28;29.35;;;16.85;;
27925;SDS011;15267;47.838;12.128;2023-02-08T11:19:55;25.15;;;16.55;;
27925;SDS011;15267;47.838;12.128;2023-02-08T11:22:23;26.02;;;16.80;;
27925;SDS011;15267;47.838;12.128;2023-02-08T11:24:57;25.20;;;16.02;;
27925;SDS011;15267;47.838;12.128;2023-02-08T11:32:34;26.88;;;17.17;;
27925;SDS011;15267;47.838;12.128;2023-02-08T11:35:20;30.05;;;18.63;;
27925;SDS011;15267;47.838;12.128;2023-02-08T11:37:47;24.30;;;16.17;;
27925;SDS011;15267;47.838;12.128;2023-02-08T11:40:18;27.65;;;18.17;;
27925;SDS011;15267;47.838;12.128;2023-02-08T11:42:45;28.77;;;18.23;;
27925;SDS011;15267;47.838;12.128;2023-02-08T11:45:17;26.58;;;18.15;;
27925;SDS011;15267;47.838;12.128;2023-02-08T11:47:45;27.73;;;18.23;;
27925;SDS011;15267;47.838;12.128;2023-02-08T11:50:20;26.58;;;17.52;;
27925;SDS011;15267;47.838;12.128;2023-02-08T11:52:50;26.38;;;16.92;;
27925;SDS011;15267;47.838;12.128;2023-02-08T11:55:23;25.80;;;17.63;;
27925;SDS011;15267;47.838;12.128;2023-02-08T11:58:24;29.25;;;18.75;;
27925;SDS011;15267;47.838;12.128;2023-02-08T12:00:43;28.27;;;17.90;;
27925;SDS011;15267;47.838;12.128;2023-02-08T12:03:23;26.50;;;18.90;;
27925;SDS011;15267;47.838;12.128;2023-02-08T12:06:00;29.02;;;19.40;;
27925;SDS011;15267;47.838;12.128;2023-02-08T12:19:12;31.95;;;21.67;;
27925;SDS011;15267;47.838;12.128;2023-02-08T12:21:42;32.92;;;21.85;;
27925;SDS011;15267;47.838;12.128;2023-02-08T12:24:21;34.33;;;21.95;;
27925;SDS011;15267;47.838;12.128;2023-02-08T12:27:03;36.17;;;21.48;;
27925;SDS011;15267;47.838;12.128;2023-02-08T12:29:47;30.75;;;20.45;;
27925;SDS011;15267;47.838;12.128;2023-02-08T12:32:21;29.73;;;19.67;;
27925;SDS011;15267;47.838;12.128;2023-02-08T12:34:53;32.75;;;20.65;;
27925;SDS011;15267;47.838;12.128;2023-02-08T12:45:56;30.23;;;20.45;;
27925;SDS011;15267;47.838;12.128;2023-02-08T12:48:31;29.10;;;19.83;;
27925;SDS011;15267;47.838;12.128;2023-02-08T12:53:34;33.00;;;20.05;;
27925;SDS011;15267;47.838;12.128;2023-02-08T12:56:04;30.92;;;21.40;;
27925;SDS011;15267;47.838;12.128;2023-02-08T12:58:33;33.90;;;20.67;;
27925;SDS011;15267;47.838;12.128;2023-02-08T13:01:10;35.10;;;21.73;;
27925;SDS011;15267;47.838;12.128;2023-02-08T13:03:44;35.90;;;22.60;;
27925;SDS011;15267;47.838;12.128;2023-02-08T13:06:14;30.20;;;20.85;;
27925;SDS011;15267;47.838;12.128;2023-02-08T13:11:11;33.65;;;22.52;;
27925;SDS011;15267;47.838;12.128;2023-02-08T13:13:39;35.17;;;22.40;;
27925;SDS011;15267;47.838;12.128;2023-02-08T13:16:20;30.67;;;21.00;;
27925;SDS011;15267;47.838;12.128;2023-02-08T13:18:49;33.25;;;22.05;;
27925;SDS011;15267;47.838;12.128;2023-02-08T13:21:28;32.85;;;22.65;;
27925;SDS011;15267;47.838;12.128;2023-02-08T13:23:56;31.48;;;21.77;;
27925;SDS011;15267;47.838;12.128;2023-02-08T13:26:24;33.22;;;20.77;;
27925;SDS011;15267;47.838;12.128;2023-02-08T13:28:55;27.83;;;19.00;;
27925;SDS011;15267;47.838;12.128;2023-02-08T13:31:22;28.27;;;19.17;;
27925;SDS011;15267;47.838;12.128;2023-02-08T13:33:50;26.75;;;18.55;;
27925;SDS011;15267;47.838;12.128;2023-02-08T13:36:22;30.95;;;19.52;;
27925;SDS011;15267;47.838;12.128;2023-02-08T13:38:49;31.10;;;21.50;;
27925;SDS011;15267;47.838;12.128;2023-02-08T13:41:16;31.65;;;22.17;;
27925;SDS011;15267;47.838;12.128;2023-02-08T13:43:45;31.33;;;20.75;;
27925;SDS011;15267;47.838;12.128;2023-02-08T13:46:12;33.42;;;22.52;;
27925;SDS011;15267;47.838;12.128;2023-02-08T13:48:46;28.73;;;20.27;;
27925;SDS011;15267;47.838;12.128;2023-02-08T13:56:57;28.35;;;19.17;;
27925;SDS011;15267;47.838;12.128;2023-02-08T14:01:43;24.50;;;17.38;;
27925;SDS011;15267;47.838;12.128;2023-02-08T14:04:29;28.05;;;19.00;;
27925;SDS011;15267;47.838;12.128;2023-02-08T14:07:01;25.65;;;19.10;;
27925;SDS011;15267;47.838;12.128;2023-02-08T14:09:38;28.23;;;19.33;;
27925;SDS011;15267;47.838;12.128;2023-02-08T14:12:12;27.92;;;19.02;;
27925;SDS011;15267;47.838;12.128;2023-02-08T14:14:42;26.65;;;18.48;;
27925;SDS011;15267;47.838;12.128;2023-02-08T14:17:27;25.98;;;18.25;;
27925;SDS011;15267;47.838;12.128;2023-02-08T14:19:55;24.60;;;17.73;;
27925;SDS011;15267;47.838;12.128;2023-02-08T14:22:21;27.88;;;18.15;;
27925;SDS011;15267;47.838;12.128;2023-02-08T14:24:48;27.08;;;18.02;;
27925;SDS011;15267;47.838;12.128;2023-02-08T14:32:40;25.77;;;17.08;;
27925;SDS011;15267;47.838;12.128;2023-02-08T14:35:15;27.42;;;18.23;;
27925;SDS011;15267;47.838;12.128;2023-02-08T14:37:43;28.17;;;18.00;;
27925;SDS011;15267;47.838;12.128;2023-02-08T14:42:55;26.60;;;18.70;;
27925;SDS011;15267;47.838;12.128;2023-02-08T14:47:55;29.50;;;18.27;;
27925;SDS011;15267;47.838;12.128;2023-02-08T14:50:24;24.70;;;18.38;;
27925;SDS011;15267;47.838;12.128;2023-02-08T14:52:53;26.00;;;17.90;;
27925;SDS011;15267;47.838;12.128;2023-02-08T14:55:24;25.33;;;17.85;;
27925;SDS011;15267;47.838;12.128;2023-02-08T14:57:55;26.00;;;18.08;;
27925;SDS011;15267;47.838;12.128;2023-02-08T15:00:23;27.52;;;19.05;;
27925;SDS011;15267;47.838;12.128;2023-02-08T15:02:50;24.70;;;18.08;;
27925;SDS011;15267;47.838;12.128;2023-02-08T15:05:23;26.65;;;18.15;;
27925;SDS011;15267;47.838;12.128;2023-02-08T15:07:51;27.17;;;19.30;;
27925;SDS011;15267;47.838;12.128;2023-02-08T15:10:18;29.30;;;19.02;;
27925;SDS011;15267;47.838;12.128;2023-02-08T15:12:45;25.45;;;17.95;;
27925;SDS011;15267;47.838;12.128;2023-02-08T15:17:47;27.45;;;19.42;;
27925;SDS011;15267;47.838;12.128;2023-02-08T15:20:27;24.27;;;18.48;;
27925;SDS011;15267;47.838;12.128;2023-02-08T15:22:58;26.58;;;18.50;;
27925;SDS011;15267;47.838;12.128;2023-02-08T15:25:26;26.67;;;18.13;;
27925;SDS011;15267;47.838;12.128;2023-02-08T15:27:55;28.60;;;18.35;;
27925;SDS011;15267;47.838;12.128;2023-02-08T15:30:30;28.25;;;18.52;;
27925;SDS011;15267;47.838;12.128;2023-02-08T15:32:57;25.98;;;18.30;;
27925;SDS011;15267;47.838;12.128;2023-02-08T15:35:25;23.13;;;17.48;;
27925;SDS011;15267;47.838;12.128;2023-02-08T15:37:52;25.33;;;16.92;;
27925;SDS011;15267;47.838;12.128;2023-02-08T15:40:28;22.75;;;16.08;;
27925;SDS011;15267;47.838;12.128;2023-02-08T15:43:30;24.42;;;16.77;;
27925;SDS011;15267;47.838;12.128;2023-02-08T15:45:59;23.05;;;17.10;;
27925;SDS011;15267;47.838;12.128;2023-02-08T15:48:25;22.25;;;16.67;;
27925;SDS011;15267;47.838;12.128;2023-02-08T15:50:51;22.02;;;16.23;;
27925;SDS011;15267;47.838;12.128;2023-02-08T15:53:18;25.35;;;17.17;;
27925;SDS011;15267;47.838;12.128;2023-02-08T15:55:45;24.50;;;17.60;;
27925;SDS011;15267;47.838;12.128;2023-02-08T15:58:15;25.40;;;18.38;;
27925;SDS011;15267;47.838;12.128;2023-02-08T16:00:42;27.23;;;18.95;;
27925;SDS011;15267;47.838;12.128;2023-02-08T16:03:19;28.42;;;17.40;;
27925;SDS011;15267;47.838;12.128;2023-02-08T16:05:51;24.77;;;17.80;;
27925;SDS011;15267;47.838;12.128;2023-02-08T16:08:19;27.35;;;17.02;;
27925;SDS011;15267;47.838;12.128;2023-02-08T16:10:46;39.70;;;25.98;;
27925;SDS011;15267;47.838;12.128;2023-02-08T16:15:46;39.15;;;22.00;;
27925;SDS011;15267;47.838;12.128;2023-02-08T16:18:32;36.08;;;22.10;;
27925;SDS011;15267;47.838;12.128;2023-02-08T16:20:58;36.03;;;22.33;;